WEATHER DATA

YESTERDAY
Time Temp. Dewp. Hum. Wind dir Wind speed Wind gust Bar. 1h Prec. 24h Prec.
00:05 11.6 9 84 237 0.8 2.2 1026.7 0.0000 0.0000
00:15 11.6 9.2 85 281 0.8 1.9 1026.7 0.0000 0.0000
00:25 11.6 9.2 85 225 1.1 3.3 1026.7 0.0000 0.0000
00:35 11.5 9.1 85 270 0.3 2.5 1026.8 0.0000 0.0000
00:45 11.5 9.2 86 320 0.8 2.2 1026.7 0.0000 0.0000
00:55 11.6 9.3 86 323 0.8 3.1 1026.9 0.0000 0.0000
01:06 11.6 9.3 86 323 0.8 2.2 1027 0.0000 0.0000
01:15 11.7 9.3 85 318 0.8 2.2 1027 0.0000 0.0000
01:25 11.7 9.3 85 309 0.8 3.3 1027.1 0.0000 0.0000
01:35 11.7 9.3 85 338 1.1 2.2 1027 0.0000 0.0000
01:48 11.7 9.1 84 321 0.8 2.5 1027 0.0000 0.0000
01:58 11.7 9.1 84 333 0.8 2.2 1027.3 0.0000 0.0000
02:08 11.6 8.8 83 326 1.1 4.2 1027 0.0000 0.0000
02:18 11.6 8.6 82 320 0.8 3.6 1027.3 0.0000 0.0000
02:28 11.6 8.6 82 327 0.8 2.2 1027.2 0.0000 0.0000
02:39 11.5 8.5 82 335 1.1 4.4 1027.3 0.0000 0.0000
02:48 11.5 8.4 81 317 1.1 3.6 1027.3 0.0000 0.0000
02:58 11.5 8.4 81 326 0.8 1.9 1027.4 0.0000 0.0000
03:07 11.5 8.4 81 325 0.8 2.2 1027.3 0.0000 0.0000
03:17 11.4 8.1 80 332 1.1 3.6 1027.4 0.0000 0.0000
03:27 11.4 8.1 80 329 0.8 4.2 1027.5 0.0000 0.0000
03:37 11.3 8.2 81 326 0.8 2.2 1027.4 0.0000 0.0000
03:47 11.3 8.2 81 315 1.1 3.1 1027.7 0.0000 0.0000
03:57 11.2 8.1 81 333 1.1 2.2 1027.7 0.0000 0.0000
04:08 11.1 8.1 82 326 0.8 2.2 1027.6 0.0000 0.0000
04:19 11.1 8 81 331 1.1 3.1 1027.6 0.0000 0.0000
04:28 11.1 8 81 334 0.8 1.9 1027.8 0.0000 0.0000
04:38 11 7.9 81 330 1.1 3.3 1027.8 0.0000 0.0000
04:49 11 7.9 81 335 1.1 4.2 1028 0.0000 0.0000
04:59 10.9 7.8 81 333 1.1 2.2 1028.2 0.0000 0.0000
05:08 10.9 7.8 81 325 0.8 1.9 1027.8 0.0000 0.0000
05:18 10.9 7.8 81 329 0.8 3.3 1028.1 0.0000 0.0000
05:29 10.8 7.7 81 324 1.1 3.3 1028.2 0.0000 0.0000
05:39 10.8 7.9 82 315 0.8 2.5 1028.3 0.0000 0.0000
05:49 10.8 7.9 82 338 0.8 2.5 1028.2 0.0000 0.0000
06:02 10.8 7.9 82 330 0.8 2.5 1028.4 0.0000 0.0000
06:12 10.8 7.9 82 332 1.1 3.1 1028.6 0.0000 0.0000
06:32 10.7 7.9 83 270 0.8 3.1 1028.6 0.0000 0.0000
06:49 10.6 8 84 333 1.1 4.2 1028.9 0.0000 0.0000
06:58 10.6 8.2 85 343 0.8 1.4 1029 0.0000 0.0000
07:09 10.6 8.2 85 319 0.8 3.1 1028.7 0.0000 0.0000
07:19 10.6 8.2 85 328 0.8 1.4 1029 0.0000 0.0000
07:29 10.6 8.4 86 18 0.3 1.1 1029.3 0.0000 0.0000
07:39 10.6 8.4 86 332 1.1 2.5 1029.2 0.0000 0.0000
07:49 10.6 8.4 86 329 0.8 2.2 1029.5 0.0000 0.0000
07:59 10.6 8.5 87 333 0.8 2.2 1029.4 0.0000 0.0000
08:09 10.5 8.4 87 330 0.8 1.9 1029.8 0.0000 0.0000
08:19 10.4 8.5 88 336 0.8 2.2 1029.8 0.0000 0.0000
08:29 10.4 8.7 89 325 1.1 3.1 1029.8 0.0000 0.0000
08:39 10.5 8.8 89 329 0.8 3.3 1030.1 0.0000 0.0000
08:49 10.7 9 89 327 0.8 2.2 1030 0.0000 0.0000
09:00 10.9 9 88 337 0.8 1.9 1030.1 0.0000 0.0000
09:09 11.2 8.9 86 331 1.1 3.3 1030.4 0.0000 0.0000
09:19 11.4 9 85 334 0.8 2.5 1030.2 0.0000 0.0000
09:30 11.5 8.4 81 329 1.4 3.3 1030.3 0.0000 0.0000
09:40 11.6 8.6 82 341 1.1 3.1 1030.5 0.0000 0.0000
09:49 11.7 8.7 82 336 1.1 2.5 1030.4 0.0000 0.0000
10:00 11.9 8.9 82 337 1.1 3.1 1030.6 0.0000 0.0000
10:25 12.2 8.9 80 336 1.1 3.3 1030.5 0.0000 0.0000
10:35 12.3 9 80 340 0.8 2.5 1030.8 0.0000 0.0000
10:45 12.4 8.9 79 337 1.1 3.3 1031.1 0.0000 0.0000
11:05 12.6 9.1 79 331 1.1 2.2 1031.2 0.0000 0.0000
11:16 13.2 9.6 79 341 1.1 3.1 1031.2 0.0000 0.0000
11:35 13.4 9.1 75 332 1.4 3.3 1031.2 0.0000 0.0000
11:45 13.5 9 74 348 1.1 2.5 1031.1 0.0000 0.0000
11:56 14.6 10.6 77 327 1.1 5.6 1031.4 0.0000 0.0000
12:05 15.2 10.2 72 338 1.1 3.1 1031.4 0.0000 0.0000
12:15 16 10.8 71 331 1.4 3.6 1031.6 0.0000 0.0000
12:26 16.2 10.5 69 329 1.4 4.2 1031.7 0.0000 0.0000
12:36 17.7 11.3 66 353 1.1 3.3 1031.6 0.0000 0.0000
12:46 18.3 11.1 63 335 1.1 2.5 1031.7 0.0000 0.0000
12:56 18.8 10.9 60 338 1.1 3.1 1031.7 0.0000 0.0000
13:06 19 10.8 59 341 1.1 3.6 1031.8 0.0000 0.0000
13:16 19.5 11 58 337 1.1 3.3 1031.7 0.0000 0.0000
13:26 19.5 10.8 57 4 1.1 2.5 1031.9 0.0000 0.0000
13:36 19.7 11 57 341 1.1 2.5 1032 0.0000 0.0000
13:46 19.3 10.8 58 333 1.1 3.3 1032.1 0.0000 0.0000
13:56 19.1 10.7 58 340 1.1 3.1 1032.1 0.0000 0.0000
14:06 18.9 10.7 59 326 1.1 2.5 1032.1 0.0000 0.0000
14:17 19.1 10.9 59 355 0.8 2.2 1032.2 0.0000 0.0000
14:26 21.4 12.8 58 353 1.1 3.6 1032.5 0.0000 0.0000
14:36 21.8 12.1 54 349 0.8 2.5 1032.4 0.0000 0.0000
14:47 21.6 11.6 53 318 1.1 3.3 1032.7 0.0000 0.0000
14:57 21.2 11.3 53 315 0.8 1.9 1032.6 0.0000 0.0000
15:06 19.6 10 54 343 1.1 2.5 1032.6 0.0000 0.0000
15:16 18.4 10.3 59 325 0.8 2.2 1032.7 0.0000 0.0000
15:27 17.9 10.3 61 336 0.8 2.5 1032.6 0.0000 0.0000
15:37 17.7 10.1 61 322 1.1 3.1 1032.8 0.0000 0.0000
15:47 17.4 10.1 62 270 1.1 4.4 1032.6 0.0000 0.0000
15:57 17.2 10.3 64 327 0.8 2.2 1032.8 0.0000 0.0000
16:07 17.1 10.2 64 315 0.8 3.1 1032.7 0.0000 0.0000
16:17 17 10.1 64 342 0.8 2.5 1032.8 0.0000 0.0000
16:27 17 10.4 65 338 0.8 2.2 1032.9 0.0000 0.0000
16:37 16.9 10.3 65 254 0.8 2.5 1032.8 0.0000 0.0000
16:47 16.9 10.5 66 326 1.1 3.3 1032.9 0.0000 0.0000
16:57 17.2 10.8 66 244 1.1 3.6 1032.9 0.0000 0.0000
17:08 17 10.4 65 270 1.1 4.4 1033 0.0000 0.0000
17:18 17.2 10.6 65 321 1.1 5.6 1033 0.0000 0.0000
17:28 17.1 10.5 65 320 1.1 3.3 1033 0.0000 0.0000
17:38 17.3 10.7 65 326 0.8 2.2 1033.1 0.0000 0.0000
17:48 17.4 10.5 64 334 1.1 3.3 1033.3 0.0000 0.0000
17:58 17.3 10.7 65 299 1.1 3.1 1033.2 0.0000 0.0000
18:08 17.2 10.6 65 324 1.1 4.7 1033.4 0.0000 0.0000
18:18 16.9 10.5 66 315 1.4 4.4 1033.3 0.0000 0.0000
18:29 16.8 10.6 67 288 1.1 3.1 1033.4 0.0000 0.0000
18:38 16.7 10.5 67 295 1.1 4.2 1033.4 0.0000 0.0000
18:48 16.7 10.8 68 232 1.1 4.4 1033.7 0.0000 0.0000
18:59 16.4 10.5 68 229 1.1 3.1 1033.6 0.0000 0.0000
19:09 16.2 10.5 69 323 0.8 2.5 1033.7 0.0000 0.0000
19:19 15.9 10.2 69 322 0.8 2.2 1034 0.0000 0.0000
19:29 15.6 10.2 70 332 1.1 3.1 1034 0.0000 0.0000
19:39 15.3 9.9 70 319 1.1 3.1 1034.2 0.0000 0.0000
19:49 15.1 10.1 72 306 0.3 2.5 1034.1 0.0000 0.0000
19:59 15.1 10.1 72 332 0.8 2.5 1034.3 0.0000 0.0000
20:09 14.8 9.8 72 338 0.8 1.9 1034.4 0.0000 0.0000
20:19 14.6 9.8 73 225 0.3 1.9 1034.5 0.0000 0.0000
20:29 14.6 9.8 73 326 0.3 1.1 1034.4 0.0000 0.0000
20:39 14.4 9.8 74 325 0.8 2.5 1034.7 0.0000 0.0000
20:50 14.1 9.5 74 329 0.8 2.5 1034.7 0.0000 0.0000
21:09 13.8 9.3 74 320 0.8 3.1 1035 0.0000 0.0000
21:20 13.6 9.3 75 315 0.3 3.3 1035.3 0.0000 0.0000
21:29 13.5 9.4 76 345 0.3 1.9 1035.2 0.0000 0.0000
21:39 13.3 9.2 76 338 0.3 1.4 1035.3 0.0000 0.0000
21:50 13.2 9.3 77 0 0.3 1.1 1035.6 0.0000 0.0000
22:00 13.1 9.4 78 335 0.3 1.9 1035.5 0.0000 0.0000
22:10 12.9 9.2 78 341 0.8 1.9 1035.4 0.0000 0.0000
22:19 12.8 9.3 79 329 0.3 1.9 1035.9 0.0000 0.0000
22:30 12.6 9.2 80 331 0.3 1.4 1035.8 0.0000 0.0000
22:40 12.5 9.1 80 339 0.3 1.4 1035.8 0.0000 0.0000
22:50 12.4 9.1 80 225 0.3 1.4 1035.7 0.0000 0.0000
23:00 12.3 9 80 225 0.3 1.1 1035.6 0.0000 0.0000
23:10 12 8.7 80 331 0.8 1.4 1035.6 0.0000 0.0000
23:20 11.9 8.7 81 351 0.3 1.4 1035.7 0.0000 0.0000
23:30 11.6 8.5 81 332 1.1 3.1 1035.6 0.0000 0.0000
23:41 11.4 8.4 82 333 0.3 1.9 1035.9 0.0000 0.0000
23:49 11.4 8.6 83 338 0.3 1.1 1035.8 0.0000 0.0000
23:59 11.3 8.5 83 338 0.3 1.1 1036 0.0000

DAY STATISTIC

2020-05-25
TEMPERATURE
AVERAGE
13.9
HIGH
21.8
14:36
LOW
10.4
08:19
PRESSURE
AVERAGE
1031.2
HIGH
1036.0
23:59
LOW
1026.7
00:05
DEWPOINT
AVERAGE
9.4
HIGH
12.8
14:26
LOW
7.7
05:29
HUMIDITY
AVERAGE
75
HIGH
89
08:29
LOW
53
14:47
WIND SPEED
AVERAGE
0.9
HIGH
1.4
09:30
WIND GUST
AVERAGE
2.7
HIGH
5.6
11:56
WIND DIRECTION
PREVAILING
NW
67.2%
N
21.9
NE
0.0
E
0.0
SE
0.0
S
0.0
SW
5.8
W
5.1
NW
67.2
PRECIPITATION
RAIN HOUR
0.0
RAIN DAY
0.0
TEMPERATURE (°C)
LOW
10.4
HIGH
21.8
AVERAGE
13.9
PRESSURE (hpa)
LOW
1026.7
HIGH
1036.0
AVERAGE
1031.2
DEVICE